Time;durP1;ratioP1;P1;durP2;ratioP2;P2;SDS_P1;SDS_P2;PMS_P1;PMS_P2;Temp;Humidity;BMP_temperature;BMP_pressure;BME280_temperature;BME280_humidity;BME280_pressure;Samples;Min_cycle;Max_cycle;Signal;HPM_P1;HPM_P2
2022/05/02 00:00:12;;;;;;;8.23;4.70;;;;;;;10.90;47.13;99843.78;5093673;28;20027;-59
2022/05/02 00:02:38;;;;;;;7.00;4.93;;;;;;;10.93;49.41;99838.53;5093295;28;20377;-59
2022/05/02 00:05:06;;;;;;;8.15;4.68;;;;;;;10.79;48.61;99850.06;5093655;28;20465;-59
2022/05/02 00:07:31;;;;;;;6.47;4.90;;;;;;;10.83;49.64;99845.66;5092786;28;20052;-59
2022/05/02 00:09:57;;;;;;;6.00;4.80;;;;;;;10.81;49.63;99843.09;5093455;28;20089;-59
2022/05/02 00:12:23;;;;;;;8.15;4.65;;;;;;;10.81;47.80;99848.28;5080250;28;20098;-59
2022/05/02 00:14:48;;;;;;;8.65;5.38;;;;;;;10.72;48.38;99843.28;5086071;28;20036;-59
2022/05/02 00:17:14;;;;;;;8.70;5.43;;;;;;;10.76;47.78;99828.50;5092895;28;20502;-60
2022/05/02 00:19:39;;;;;;;7.03;4.78;;;;;;;10.75;47.99;99839.78;5093272;28;20496;-59
2022/05/02 00:22:05;;;;;;;8.70;5.15;;;;;;;10.77;47.34;99838.84;5093021;28;20035;-59
2022/05/02 00:24:31;;;;;;;6.05;4.82;;;;;;;10.77;47.93;99838.84;5093299;28;20103;-60
2022/05/02 00:26:57;;;;;;;6.47;4.28;;;;;;;10.81;49.52;99843.09;5090839;28;20028;-59
2022/05/02 00:29:22;;;;;;;10.40;5.38;;;;;;;10.83;49.02;99843.06;5077356;28;20028;-59
2022/05/02 00:31:48;;;;;;;8.88;5.22;;;;;;;10.75;50.71;99838.03;5093156;28;20354;-59
2022/05/02 00:34:14;;;;;;;8.27;5.22;;;;;;;10.77;50.03;99843.19;5093029;28;20047;-59
2022/05/02 00:36:40;;;;;;;9.57;5.10;;;;;;;10.80;50.12;99833.63;5093180;28;20564;-58
2022/05/02 00:39:06;;;;;;;8.57;5.35;;;;;;;10.84;50.43;99830.06;5092679;28;20110;-58
2022/05/02 00:41:31;;;;;;;11.18;5.50;;;;;;;10.82;50.54;99834.44;5092702;28;20362;-58
2022/05/02 00:43:57;;;;;;;8.00;4.80;;;;;;;10.83;50.54;99832.69;5093014;28;20039;-59
2022/05/02 00:46:24;;;;;;;8.27;5.50;;;;;;;10.81;48.83;99837.91;5092800;28;20024;-59
2022/05/02 00:48:52;;;;;;;9.50;5.72;;;;;;;10.79;49.64;99831.91;5092486;28;20024;-59
2022/05/02 00:51:18;;;;;;;12.15;5.15;;;;;;;10.79;48.64;99834.50;5092519;28;20540;-59
2022/05/02 00:53:46;;;;;;;11.57;5.80;;;;;;;10.81;49.50;99844.84;5092664;28;20055;-59
2022/05/02 00:56:12;;;;;;;11.25;5.85;;;;;;;10.80;49.13;99832.75;5092479;28;20078;-59
2022/05/02 00:58:38;;;;;;;8.65;5.38;;;;;;;10.80;49.64;99832.75;5092548;28;20020;-59
2022/05/02 01:01:05;;;;;;;10.60;5.70;;;;;;;10.77;49.41;99833.66;5092506;28;20103;-58
2022/05/02 01:03:33;;;;;;;8.90;5.68;;;;;;;10.68;49.06;99829.53;5092087;28;20032;-58
2022/05/02 01:08:43;;;;;;;11.48;5.70;;;;;;;10.60;48.83;99825.38;5091906;28;20369;-60
2022/05/02 01:11:09;;;;;;;7.30;5.45;;;;;;;10.65;49.86;99826.16;5092129;28;20032;-59
2022/05/02 01:13:41;;;;;;;9.27;5.97;;;;;;;10.29;49.83;99769.84;5091987;28;20024;-59
2022/05/02 01:16:16;;;;;;;7.75;6.10;;;;;;;10.19;50.13;99752.78;5091220;28;20500;-58
2022/05/02 01:18:44;;;;;;;10.68;5.70;;;;;;;10.60;50.45;99822.78;5091740;28;20070;-58
2022/05/02 01:21:15;;;;;;;8.77;5.57;;;;;;;10.26;49.39;99771.63;5091968;28;20168;-58
2022/05/02 01:23:42;;;;;;;10.60;6.33;;;;;;;10.60;50.02;99825.38;5091824;28;20416;-59
2022/05/02 01:26:08;;;;;;;10.27;6.03;;;;;;;10.49;50.99;99818.69;5091850;28;20028;-59
2022/05/02 01:28:44;;;;;;;7.63;5.50;;;;;;;10.29;51.38;99794.84;5091808;28;20028;-59
2022/05/02 01:31:10;;;;;;;7.68;5.72;;;;;;;10.47;50.66;99817.84;5092104;28;20027;-59
2022/05/02 01:33:36;;;;;;;15.27;6.97;;;;;;;10.40;50.61;99812.81;5091984;28;20027;-59
2022/05/02 01:36:02;;;;;;;13.85;6.13;;;;;;;10.41;50.91;99824.88;5091798;28;20493;-59
2022/05/02 01:38:28;;;;;;;12.52;6.45;;;;;;;10.38;51.96;99825.78;5091468;28;20028;-60
2022/05/02 01:40:53;;;;;;;10.38;5.82;;;;;;;10.37;51.01;99813.72;5091969;28;20028;-60
2022/05/02 01:43:19;;;;;;;13.57;5.65;;;;;;;10.36;51.08;99823.22;5091831;28;20081;-60
2022/05/02 01:45:44;;;;;;;11.77;5.28;;;;;;;10.31;51.73;99825.00;5092054;28;20024;-60
2022/05/02 01:48:10;;;;;;;11.95;5.60;;;;;;;10.26;51.56;99826.84;5091559;28;20024;-59
2022/05/02 01:50:35;;;;;;;13.07;6.40;;;;;;;10.24;51.23;99822.56;5091021;28;20024;-59
2022/05/02 01:53:01;;;;;;;12.95;5.68;;;;;;;10.16;51.72;99830.44;5090308;28;20354;-59
2022/05/02 01:55:27;;;;;;;10.25;5.75;;;;;;;10.15;51.59;99821.84;5091809;28;20033;-59
2022/05/02 01:57:52;;;;;;;14.73;5.95;;;;;;;10.16;52.62;99825.28;5091365;28;20046;-59
2022/05/02 02:00:18;;;;;;;10.45;5.45;;;;;;;10.17;52.79;99827.00;5091385;28;20427;-60
2022/05/02 02:02:44;;;;;;;11.85;5.65;;;;;;;10.19;51.83;99830.41;5091402;28;20024;-59
2022/05/02 02:07:54;;;;;;;16.17;6.05;;;;;;;10.03;52.83;99816.88;5091541;28;20036;-59
2022/05/02 02:10:19;;;;;;;11.00;5.70;;;;;;;10.10;52.65;99831.41;5091282;28;20532;-59
2022/05/02 02:12:45;;;;;;;10.75;5.75;;;;;;;10.12;53.92;99834.00;5091449;28;20046;-59
2022/05/02 02:15:14;;;;;;;11.90;5.45;;;;;;;9.90;53.73;99810.22;5091102;28;20469;-59
2022/05/02 02:17:44;;;;;;;14.00;6.00;;;;;;;10.08;54.41;99830.59;5090871;28;20032;-59
2022/05/02 02:20:12;;;;;;;13.25;6.15;;;;;;;9.78;52.72;99775.06;5090979;28;20107;-59
2022/05/02 02:22:38;;;;;;;15.27;6.55;;;;;;;10.17;53.91;99832.16;5091790;28;20028;-60
2022/05/02 02:25:05;;;;;;;18.70;6.75;;;;;;;10.20;53.05;99837.28;5091354;28;20021;-60
2022/05/02 02:27:31;;;;;;;14.65;6.00;;;;;;;10.04;53.41;99818.59;5084755;28;20031;-60
2022/05/02 02:29:57;;;;;;;16.90;6.90;;;;;;;10.10;53.50;99831.41;5081026;28;20408;-60
2022/05/02 02:32:23;;;;;;;14.80;6.45;;;;;;;10.16;53.40;99835.63;5095222;28;20134;-60
2022/05/02 02:34:49;;;;;;;17.52;6.68;;;;;;;10.22;52.95;99839.84;5095582;28;20035;-60
2022/05/02 02:37:16;;;;;;;18.13;8.27;;;;;;;10.28;51.27;99835.41;5095340;28;20024;-60
2022/05/02 02:39:42;;;;;;;17.80;8.77;;;;;;;10.21;51.32;99831.22;5095056;28;20024;-59
2022/05/02 02:42:08;;;;;;;17.55;8.10;;;;;;;10.36;51.82;99840.47;5095315;28;20026;-59
2022/05/02 02:44:33;;;;;;;17.98;7.55;;;;;;;10.44;52.07;99843.78;5095433;28;20202;-58
2022/05/02 02:46:59;;;;;;;10.07;7.25;;;;;;;10.49;51.38;99841.97;5076745;28;20032;-58
2022/05/02 02:49:25;;;;;;;11.95;6.40;;;;;;;10.51;50.52;99842.78;5095031;28;20418;-58
2022/05/02 02:51:50;;;;;;;9.55;6.38;;;;;;;10.53;51.25;99847.94;5095033;28;20556;-59
2022/05/02 02:54:16;;;;;;;11.00;6.93;;;;;;;10.50;50.29;99851.47;5093223;28;20389;-59
2022/05/02 02:56:42;;;;;;;13.15;7.60;;;;;;;10.45;51.06;99837.75;5094870;28;20435;-59
2022/05/02 02:59:08;;;;;;;12.75;6.93;;;;;;;10.57;51.25;99848.75;5094617;28;20103;-59
2022/05/02 03:01:34;;;;;;;10.40;6.80;;;;;;;10.59;50.90;99846.97;5094765;28;20377;-58
2022/05/02 03:06:01;;;;;;;10.57;7.03;;;;;;;10.59;51.38;99842.66;5094853;28;20036;-59
2022/05/02 03:06:45;;;;;;;11.02;6.28;;;;;;;10.62;50.46;99847.78;5094549;28;20044;-59
2022/05/02 03:09:10;;;;;;;10.68;6.45;;;;;;;10.63;50.34;99843.44;5094542;28;20493;-59
2022/05/02 03:11:36;;;;;;;12.05;6.85;;;;;;;10.52;50.67;99831.56;5089541;28;20078;-58
2022/05/02 03:14:02;;;;;;;12.35;7.25;;;;;;;10.58;51.22;99847.88;5074216;28;20377;-59
2022/05/02 03:16:27;;;;;;;25.52;8.73;;;;;;;10.62;50.95;99842.59;5094215;28;20028;-59
2022/05/02 03:18:53;;;;;;;14.95;7.72;;;;;;;10.66;50.27;99840.78;5094438;28;20028;-59
2022/05/02 03:21:18;;;;;;;12.63;7.13;;;;;;;10.65;51.06;99842.53;5094573;28;20495;-59
2022/05/02 03:23:44;;;;;;;9.38;6.55;;;;;;;10.63;51.44;99844.31;5094460;28;20020;-59
2022/05/02 03:26:09;;;;;;;8.68;6.43;;;;;;;10.66;51.29;99852.03;5094205;28;20385;-60
2022/05/02 03:28:35;;;;;;;11.18;7.43;;;;;;;10.66;51.75;99845.97;5094372;28;20051;-59
2022/05/02 03:31:01;;;;;;;13.80;7.63;;;;;;;10.71;51.69;99850.19;5094366;28;20027;-59
2022/05/02 03:33:26;;;;;;;11.98;7.28;;;;;;;10.71;52.84;99849.34;5094484;28;20058;-60
2022/05/02 03:35:52;;;;;;;9.82;6.57;;;;;;;10.74;51.79;99870.00;5094171;28;20024;-59
2022/05/02 03:38:17;;;;;;;12.43;7.45;;;;;;;10.77;51.43;99856.13;5093946;28;20020;-59
2022/05/02 03:40:43;;;;;;;12.93;7.72;;;;;;;10.80;51.77;99858.66;5093751;28;20354;-59
2022/05/02 03:43:08;;;;;;;13.68;7.85;;;;;;;10.82;50.88;99862.94;5093242;28;20028;-59
2022/05/02 03:45:34;;;;;;;16.92;7.80;;;;;;;10.84;50.74;99850.78;5093933;28;20024;-59
2022/05/02 03:48:00;;;;;;;10.73;7.25;;;;;;;10.94;50.78;99866.16;5093720;28;20040;-59
2022/05/02 03:50:25;;;;;;;13.30;8.05;;;;;;;10.95;50.41;99870.47;5093921;28;20035;-60
2022/05/02 03:52:51;;;;;;;16.55;8.30;;;;;;;10.98;51.05;99863.47;5093812;28;20032;-59
2022/05/02 03:55:16;;;;;;;13.68;7.95;;;;;;;11.04;50.19;99870.28;5094232;28;20035;-59
2022/05/02 03:57:42;;;;;;;20.02;7.80;;;;;;;11.10;51.11;99862.41;5093634;28;20062;-59
2022/05/02 04:00:08;;;;;;;11.55;8.18;;;;;;;11.18;51.24;99864.81;5093400;28;20024;-59
2022/05/02 04:02:34;;;;;;;12.80;8.82;;;;;;;11.23;50.58;99871.59;5093577;28;20126;-58
2022/05/02 04:05:00;;;;;;;14.63;8.77;;;;;;;11.35;51.28;99859.28;5093818;28;20032;-58
2022/05/02 04:07:25;;;;;;;13.68;8.40;;;;;;;11.49;50.56;99864.16;5093314;28;20097;-58
2022/05/02 04:09:51;;;;;;;13.95;8.30;;;;;;;11.55;49.40;99864.00;5093026;28;20456;-58
2022/05/02 04:12:16;;;;;;;14.98;7.72;;;;;;;11.55;49.39;99848.44;5083127;28;20067;-58
2022/05/02 04:14:42;;;;;;;13.52;7.40;;;;;;;11.53;48.34;99861.47;5078834;28;20032;-58
2022/05/02 04:17:09;;;;;;;9.18;6.53;;;;;;;11.47;48.32;99858.13;5093280;28;20089;-59
2022/05/02 04:19:35;;;;;;;11.10;6.47;;;;;;;11.63;48.29;99859.50;5092982;28;20043;-59
2022/05/02 04:22:00;;;;;;;11.27;7.10;;;;;;;11.78;47.98;99866.06;5092827;28;20497;-59
2022/05/02 04:24:26;;;;;;;14.75;7.10;;;;;;;11.89;47.77;99856.28;5092478;28;20031;-59
2022/05/02 04:26:51;;;;;;;13.18;8.15;;;;;;;11.95;47.76;99857.91;5092446;28;20034;-58
2022/05/02 04:29:17;;;;;;;12.32;7.13;;;;;;;12.00;48.40;99860.38;5091454;28;20031;-58
2022/05/02 04:31:43;;;;;;;14.68;7.07;;;;;;;11.95;47.50;99844.09;5074088;28;20496;-58
2022/05/02 04:34:08;;;;;;;9.75;6.97;;;;;;;11.99;47.65;99859.53;5092236;28;20027;-59
2022/05/02 04:36:34;;;;;;;9.75;6.43;;;;;;;12.05;46.96;99864.56;5092468;28;20028;-60
2022/05/02 04:38:59;;;;;;;11.88;6.60;;;;;;;12.11;46.44;99863.56;5092855;28;20127;-59
2022/05/02 04:41:25;;;;;;;11.30;6.22;;;;;;;12.08;46.00;99855.88;5092899;28;20032;-59
2022/05/02 04:43:52;;;;;;;9.70;5.70;;;;;;;12.22;45.76;99860.72;5092809;28;20024;-59
2022/05/02 04:46:19;;;;;;;10.07;5.95;;;;;;;12.16;44.66;99861.72;5092806;28;20028;-59
2022/05/02 04:48:45;;;;;;;10.75;6.40;;;;;;;12.28;45.54;99857.13;5074386;28;20028;-60
2022/05/02 04:51:10;;;;;;;9.85;6.03;;;;;;;12.29;46.18;99853.63;5092727;28;20070;-60
2022/05/02 04:53:36;;;;;;;10.15;6.75;;;;;;;12.42;45.73;99857.59;5091987;28;20032;-59
2022/05/02 04:56:02;;;;;;;9.18;6.05;;;;;;;12.49;44.89;99848.75;5092676;28;20036;-60
2022/05/02 04:58:28;;;;;;;9.95;5.75;;;;;;;12.65;45.03;99856.97;5079351;28;20434;-59
2022/05/02 05:00:53;;;;;;;7.85;5.32;;;;;;;12.70;43.59;99857.72;5069235;28;20027;-59
2022/05/02 05:03:21;;;;;;;8.40;4.82;;;;;;;12.68;43.74;99835.25;5091822;28;20081;-59
2022/05/02 05:05:46;;;;;;;7.25;5.35;;;;;;;12.71;43.44;99859.44;5092236;28;20048;-60
2022/05/02 05:08:14;;;;;;;8.68;5.10;;;;;;;12.55;43.27;99842.53;5091092;28;20039;-59
2022/05/02 05:11:09;;;;;;;10.57;5.07;;;;;;;12.39;43.90;99803.16;5091999;28;20043;-59
2022/05/02 05:17:40;;;;;;;10.02;5.47;;;;;;;12.47;41.86;99857.47;5072172;28;20037;-59
2022/05/02 05:20:09;;;;;;;9.25;5.07;;;;;;;12.67;42.07;99859.53;5025009;28;20792;-60
2022/05/02 05:22:53;;;;;;;8.15;5.18;;;;;;;12.79;41.98;99856.63;5090418;28;20029;-59
2022/05/02 05:25:51;;;;;;;9.32;4.80;;;;;;;12.83;42.17;99858.25;5090077;28;20031;-59
2022/05/02 05:28:44;;;;;;;6.55;4.10;;;;;;;12.92;41.21;99857.97;5076802;28;20024;-59
2022/05/02 05:31:32;;;;;;;8.35;5.05;;;;;;;12.71;41.63;99809.19;5086991;28;20099;-59
2022/05/02 05:34:00;;;;;;;10.80;4.90;;;;;;;12.99;40.99;99855.22;5090220;28;20017;-59
2022/05/02 05:36:53;;;;;;;7.07;5.10;;;;;;;13.11;40.74;99863.50;5090174;28;20043;-59
2022/05/02 05:39:45;;;;;;;8.45;4.85;;;;;;;13.67;41.02;99866.19;5091636;28;20423;-59
2022/05/02 05:42:16;;;;;;;6.35;4.70;;;;;;;14.19;40.00;99858.47;5091965;28;20802;-60
2022/05/02 05:45:10;;;;;;;8.55;4.80;;;;;;;14.84;38.29;99860.56;5091564;28;20138;-60
2022/05/02 05:48:10;;;;;;;8.55;4.53;;;;;;;15.24;36.53;99867.84;5091730;28;20053;-60
2022/05/02 05:50:40;;;;;;;5.88;3.50;;;;;;;15.57;34.95;99860.44;5091487;28;20040;-60
2022/05/02 05:53:17;;;;;;;7.15;3.20;;;;;;;15.52;33.35;99810.19;5091571;28;20028;-60
2022/05/02 05:56:00;;;;;;;6.60;3.63;;;;;;;15.65;34.35;99811.41;5071329;28;20028;-60
2022/05/02 05:58:37;;;;;;;7.63;3.80;;;;;;;15.88;35.28;99810.47;5090500;28;20465;-60
2022/05/02 06:01:11;;;;;;;5.38;3.65;;;;;;;15.90;33.78;99796.50;5091462;28;20028;-60
2022/05/02 06:03:59;;;;;;;4.72;2.78;;;;;;;16.13;33.41;99796.41;5091333;28;20028;-59
2022/05/02 06:06:27;;;;;;;2.75;2.40;;;;;;;16.28;30.80;99794.88;5094885;28;20055;-60
2022/05/02 06:08:56;;;;;;;4.70;2.80;;;;;;;16.49;30.62;99789.63;5095021;28;20036;-60
2022/05/02 06:11:25;;;;;;;5.38;2.70;;;;;;;16.64;29.69;99790.72;5095437;28;20024;-60
2022/05/02 06:13:53;;;;;;;7.47;2.97;;;;;;;16.58;30.74;99796.22;5095590;28;20686;-60
2022/05/02 06:19:16;;;;;;;4.63;2.97;;;;;;;17.12;28.72;99785.97;5095361;28;20465;-60
2022/05/02 06:21:45;;;;;;;5.63;3.10;;;;;;;17.77;29.29;99833.44;5095189;28;20055;-59
2022/05/02 06:24:11;;;;;;;6.38;3.00;;;;;;;17.69;28.90;99836.44;5095356;28;20024;-59
2022/05/02 06:26:38;;;;;;;4.63;3.00;;;;;;;17.73;28.52;99838.00;5095543;28;20032;-59
2022/05/02 06:29:09;;;;;;;3.53;2.53;;;;;;;17.86;27.90;99780.59;5095129;28;20024;-60
2022/05/02 06:31:36;;;;;;;4.47;2.43;;;;;;;18.01;27.17;99835.81;5095678;28;20024;-59
2022/05/02 06:34:03;;;;;;;3.72;2.15;;;;;;;16.98;26.74;99842.38;5095280;28;20100;-60
2022/05/02 06:36:35;;;;;;;2.42;2.03;;;;;;;18.09;26.42;99833.66;5095257;28;20024;-59
2022/05/02 06:39:07;;;;;;;2.70;2.10;;;;;;;18.64;26.37;99840.50;5095065;28;20103;-59
2022/05/02 06:41:59;;;;;;;2.35;1.90;;;;;;;18.17;25.96;99833.28;5095061;28;20050;-60
2022/05/02 06:44:55;;;;;;;2.83;1.83;;;;;;;18.55;24.62;99789.34;5095055;28;20389;-59
2022/05/02 06:47:34;;;;;;;2.45;1.83;;;;;;;18.43;25.23;99837.22;5095097;28;20500;-59
2022/05/02 06:50:04;;;;;;;3.38;2.45;;;;;;;18.12;25.16;99775.84;5094700;28;20145;-59
2022/05/02 06:52:40;;;;;;;6.10;1.80;;;;;;;17.90;24.77;99782.19;5095036;28;20051;-59
2022/05/02 06:55:24;;;;;;;3.30;2.10;;;;;;;18.70;25.37;99848.03;5094855;28;20024;-59
2022/05/02 06:58:36;;;;;;;2.92;2.03;;;;;;;18.07;24.29;99798.81;5094640;28;20473;-60
2022/05/02 07:01:11;;;;;;;3.25;1.80;;;;;;;17.98;24.69;99776.53;5094574;28;20032;-59
2022/05/02 07:03:52;;;;;;;3.13;1.90;;;;;;;18.33;23.61;99821.09;5094824;28;20051;-60
2022/05/02 07:06:17;;;;;;;3.55;1.88;;;;;;;18.57;23.36;99821.59;5094354;28;20603;-62
2022/05/02 07:09:00;;;;;;;2.88;1.40;;;;;;;18.44;25.01;99810.91;5094346;28;20122;-60
2022/05/02 07:11:43;;;;;;;4.43;1.92;;;;;;;18.13;25.06;99814.25;5092631;28;20469;-59
2022/05/02 07:14:19;;;;;;;2.50;1.80;;;;;;;18.41;23.70;99776.97;5074741;28;20040;-60
2022/05/02 07:16:49;;;;;;;3.75;1.88;;;;;;;19.18;24.86;99821.84;5073947;28;20029;-58
2022/05/02 07:19:52;;;;;;;2.50;1.73;;;;;;;19.94;22.81;99818.50;5073213;28;20031;-59
2022/05/02 07:22:34;;;;;;;2.45;1.50;;;;;;;20.05;21.98;99817.00;5094446;28;20028;-59
2022/05/02 07:25:06;;;;;;;2.03;1.50;;;;;;;20.27;21.98;99770.09;5094092;28;20403;-59
2022/05/02 07:27:44;;;;;;;2.47;1.60;;;;;;;19.49;22.58;99773.72;5087275;28;20355;-60
2022/05/02 07:30:10;;;;;;;2.75;1.80;;;;;;;19.94;22.56;99822.91;5081822;28;20085;-59
2022/05/02 07:32:36;;;;;;;2.15;1.70;;;;;;;19.84;23.19;99819.97;5094486;28;20027;-60
2022/05/02 07:35:02;;;;;;;3.50;1.85;;;;;;;19.46;23.03;99826.44;5076081;28;20028;-60
2022/05/02 07:37:31;;;;;;;2.17;1.98;;;;;;;19.18;23.04;99823.66;5075774;28;20370;-60
2022/05/02 07:39:58;;;;;;;2.50;1.80;;;;;;;18.80;23.80;99822.16;5093857;28;20020;-59
2022/05/02 07:42:25;;;;;;;4.95;1.80;;;;;;;18.22;22.33;99774.44;5094242;28;20054;-59
2022/05/02 07:44:54;;;;;;;4.22;1.90;;;;;;;18.82;22.69;99817.66;5094029;28;20169;-59
2022/05/02 07:47:21;;;;;;;3.70;2.10;;;;;;;18.39;23.52;99772.72;5093656;28;20107;-59
2022/05/02 07:49:48;;;;;;;2.22;1.83;;;;;;;18.24;23.80;99829.41;5093844;28;20400;-59
2022/05/02 07:52:24;;;;;;;2.72;1.70;;;;;;;18.06;23.56;99771.75;5093634;28;20040;-59
2022/05/02 07:54:52;;;;;;;2.15;1.48;;;;;;;18.21;22.95;99812.09;5093618;28;20055;-59
2022/05/02 07:57:21;;;;;;;3.80;2.00;;;;;;;17.37;24.24;99757.69;5093835;28;20056;-59
2022/05/02 07:59:51;;;;;;;2.15;1.83;;;;;;;17.36;24.65;99748.13;5093393;28;20028;-60
2022/05/02 08:02:18;;;;;;;3.05;1.77;;;;;;;17.54;23.77;99759.50;5093770;28;20088;-59
2022/05/02 08:04:45;;;;;;;2.47;1.70;;;;;;;17.85;23.74;99805.09;5093750;28;20024;-60
2022/05/02 08:07:15;;;;;;;4.43;2.30;;;;;;;17.43;24.24;99804.50;5093750;28;20059;-60
2022/05/02 08:10:02;;;;;;;2.95;2.00;;;;;;;17.10;25.14;99766.84;5093422;28;20447;-59
2022/05/02 08:12:48;;;;;;;2.42;1.65;;;;;;;17.04;24.68;99745.28;5083155;28;20056;-59
2022/05/02 08:15:35;;;;;;;3.25;2.10;;;;;;;17.12;25.50;99794.66;5081340;28;20051;-60
2022/05/02 08:18:10;;;;;;;6.13;2.05;;;;;;;16.70;26.12;99803.50;5093393;28;20119;-60
2022/05/02 08:20:59;;;;;;;4.25;1.95;;;;;;;16.81;25.52;99741.09;5092981;28;20032;-58
2022/05/02 08:29:30;;;;;;;3.72;1.90;;;;;;;17.88;22.86;99788.38;5072788;28;20102;-58
2022/05/02 08:32:04;;;;;;;2.10;1.60;;;;;;;17.83;23.52;99799.09;5092538;28;20553;-58
2022/05/02 08:34:38;;;;;;;5.28;1.63;;;;;;;17.11;23.77;99737.16;5074391;28;20424;-59
2022/05/02 08:37:13;;;;;;;3.30;1.92;;;;;;;17.23;24.33;99786.31;5092820;28;20046;-60
2022/05/02 08:40:00;;;;;;;2.97;1.63;;;;;;;17.16;24.09;99795.34;5074213;28;20503;-59
2022/05/02 08:42:50;;;;;;;3.38;1.75;;;;;;;17.17;23.55;99782.22;5092299;28;20060;-59
2022/05/02 08:45:34;;;;;;;2.10;1.33;;;;;;;17.59;23.74;99773.19;5092562;28;20028;-59
2022/05/02 08:48:30;;;;;;;3.58;1.85;;;;;;;17.58;23.58;99770.66;5092334;28;20035;-59
2022/05/02 08:51:29;;;;;;;14.32;2.17;;;;;;;17.64;22.69;99775.56;5073779;28;20032;-59
2022/05/02 08:54:35;;;;;;;4.78;1.85;;;;;;;17.60;22.90;99716.44;5087732;28;20031;-58
2022/05/02 08:57:25;;;;;;;3.88;1.67;;;;;;;17.77;21.95;99760.97;5092561;28;20493;-59
2022/05/02 09:00:06;;;;;;;2.63;1.48;;;;;;;17.28;23.60;99711.00;5091875;28;20169;-59
2022/05/02 09:02:58;;;;;;;3.65;1.20;;;;;;;17.46;22.47;99758.13;5092258;28;20035;-59
2022/05/02 09:05:58;;;;;;;3.13;1.90;;;;;;;16.90;22.90;99771.25;5078670;28;20028;-59
2022/05/02 09:08:45;;;;;;;5.53;1.42;;;;;;;17.15;23.26;99749.16;5092087;28;20489;-59
2022/05/02 09:11:10;;;;;;;3.10;1.90;;;;;;;17.14;24.16;99761.38;5074018;28;20481;-59
2022/05/02 09:14:04;;;;;;;2.88;1.50;;;;;;;17.40;24.31;99749.69;5092119;28;20032;-59
2022/05/02 09:16:51;;;;;;;2.80;1.48;;;;;;;17.84;23.28;99745.78;5091830;28;20028;-58
2022/05/02 09:19:28;;;;;;;2.53;1.60;;;;;;;17.54;22.16;99732.44;5091680;28;20031;-58
2022/05/02 09:22:22;;;;;;;2.28;1.45;;;;;;;17.14;22.88;99745.69;5092032;28;20099;-59
2022/05/02 09:25:02;;;;;;;1.50;1.40;;;;;;;16.77;23.88;99733.47;5092011;28;20379;-58
2022/05/02 09:27:47;;;;;;;;;;;;;;;16.76;23.35;99739.59;5092336;28;20086;-59
2022/05/02 09:30:41;;;;;;;2.08;1.77;;;;;;;16.98;24.05;99734.28;5092249;28;19918;-59
2022/05/02 09:33:18;;;;;;;2.80;1.70;;;;;;;16.83;23.86;99730.56;5091916;28;20501;-60
2022/05/02 09:35:52;;;;;;;1.88;1.35;;;;;;;17.13;22.92;99730.06;5091762;28;20115;-60
2022/05/02 09:38:37;;;;;;;2.00;1.63;;;;;;;17.29;22.74;99732.78;5074042;28;20114;-58
2022/05/02 09:41:42;;;;;;;3.40;1.85;;;;;;;16.86;22.58;99723.44;5091330;28;20024;-59
2022/05/02 09:51:20;;;;;;;2.83;1.60;;;;;;;16.50;24.75;99708.53;5072118;28;20033;-59
2022/05/02 09:54:15;;;;;;;5.68;1.65;;;;;;;16.67;24.30;99709.50;4985205;28;20058;-59
2022/05/02 09:56:46;;;;;;;3.08;1.50;;;;;;;16.25;22.03;99661.75;4989977;28;20122;-59
2022/05/02 09:59:30;;;;;;;2.67;1.50;;;;;;;16.71;24.04;99706.66;5073962;28;20093;-59
2022/05/02 10:02:17;;;;;;;1.60;1.35;;;;;;;16.81;24.13;99706.25;5091453;28;20169;-59
2022/05/02 10:05:05;;;;;;;1.50;1.40;;;;;;;16.87;23.27;99695.50;5091674;28;20466;-59
2022/05/02 10:07:37;;;;;;;2.20;1.48;;;;;;;17.05;22.80;99694.63;5092004;28;20044;-59
2022/05/02 10:10:08;;;;;;;4.63;1.55;;;;;;;16.98;23.47;99682.78;5091092;28;20034;-60
2022/05/02 10:12:59;;;;;;;1.33;1.20;;;;;;;16.74;23.24;99642.91;5081414;28;20397;-59
2022/05/02 10:15:43;;;;;;;5.20;3.45;;;;;;;16.93;23.57;99679.56;5080192;28;20043;-60
2022/05/02 10:18:17;;;;;;;4.15;1.92;;;;;;;17.19;24.36;99685.28;5091206;28;20024;-59
2022/05/02 10:20:43;;;;;;;2.47;1.88;;;;;;;17.00;22.87;99677.47;5091143;28;20150;-59
2022/05/02 10:23:15;;;;;;;4.50;1.73;;;;;;;17.16;24.15;99680.19;5091496;28;20427;-59
2022/05/02 10:25:58;;;;;;;3.67;1.65;;;;;;;16.96;22.55;99668.94;5091341;28;20362;-59
2022/05/02 10:28:24;;;;;;;5.18;2.88;;;;;;;17.08;23.26;99686.63;5072978;28;20093;-60
2022/05/02 10:30:52;;;;;;;1.73;1.50;;;;;;;16.98;22.31;99667.06;5091207;28;20482;-58
2022/05/02 10:33:29;;;;;;;3.58;1.60;;;;;;;16.45;23.69;99615.53;5091142;28;20040;-59
2022/05/02 10:35:58;;;;;;;2.22;1.58;;;;;;;17.17;23.57;99676.66;5090844;28;20112;-60
2022/05/02 10:38:30;;;;;;;4.40;1.95;;;;;;;17.24;25.04;99667.56;5091213;28;20028;-59
2022/05/02 10:41:07;;;;;;;3.10;1.60;;;;;;;17.27;23.22;99667.41;5090968;28;20028;-58
2022/05/02 10:43:36;;;;;;;4.20;1.50;;;;;;;17.11;23.56;99603.69;5091219;28;20035;-58
2022/05/02 10:46:02;;;;;;;2.70;1.70;;;;;;;17.32;23.06;99656.75;5073041;28;20028;-59
2022/05/02 10:48:37;;;;;;;5.82;1.55;;;;;;;17.43;22.68;99657.06;5091273;28;20027;-58
2022/05/02 10:51:32;;;;;;;4.93;1.70;;;;;;;17.42;22.31;99644.88;5092142;28;20111;-59
2022/05/02 10:54:09;;;;;;;2.35;1.40;;;;;;;17.12;22.78;99621.09;5052198;28;20537;-59
2022/05/02 10:56:42;;;;;;;2.17;1.60;;;;;;;17.12;23.80;99642.03;5094873;28;20454;-59
2022/05/02 10:59:11;;;;;;;4.15;1.83;;;;;;;16.82;23.72;99593.69;5094916;28;20055;-59
2022/05/02 11:02:31;;;;;;;3.13;1.40;;;;;;;17.00;23.80;99633.84;5076189;28;20024;-58
2022/05/02 11:05:08;;;;;;;1.95;1.48;;;;;;;17.00;23.74;99633.00;5016685;28;20052;-60
2022/05/02 11:08:06;;;;;;;2.65;1.70;;;;;;;16.87;23.36;99637.94;5092372;28;20051;-59
2022/05/02 11:11:03;;;;;;;2.00;1.48;;;;;;;16.79;22.82;99625.25;5076035;28;20150;-59
2022/05/02 11:13:31;;;;;;;1.95;1.70;;;;;;;16.80;22.56;99621.72;5060388;28;20105;-59
2022/05/02 11:16:17;;;;;;;6.00;2.40;;;;;;;16.43;22.37;99565.09;5087219;28;20020;-58
2022/05/02 11:22:08;;;;;;;3.97;1.67;;;;;;;17.21;22.75;99605.75;5094422;28;20119;-59
2022/05/02 11:25:00;;;;;;;5.30;1.60;;;;;;;16.86;23.84;99548.16;5094817;28;20128;-59
2022/05/02 11:27:31;;;;;;;2.33;1.70;;;;;;;17.03;22.98;99599.69;5088613;28;20048;-59
2022/05/02 11:30:03;;;;;;;3.05;1.40;;;;;;;17.07;23.82;99559.38;5078385;28;20043;-59
2022/05/02 11:33:05;;;;;;;3.40;2.15;;;;;;;17.23;23.14;99587.38;5076063;28;20477;-59
2022/05/02 11:35:33;;;;;;;5.80;2.13;;;;;;;17.13;23.82;99586.13;5094287;28;20032;-59
2022/05/02 11:38:26;;;;;;;4.57;1.92;;;;;;;17.38;24.51;99589.19;5094214;28;20028;-59
2022/05/02 11:40:59;;;;;;;3.03;2.35;;;;;;;17.32;23.57;99546.78;5073827;28;20036;-59
2022/05/02 11:43:29;;;;;;;2.17;1.77;;;;;;;17.35;23.07;99578.03;5090277;28;20020;-60
2022/05/02 11:46:13;;;;;;;3.90;1.98;;;;;;;17.58;23.37;99585.53;5094220;28;20028;-59
2022/05/02 11:48:48;;;;;;;3.35;1.85;;;;;;;17.53;23.51;99573.59;5094036;28;20063;-59
2022/05/02 11:51:46;;;;;;;3.17;1.90;;;;;;;17.33;24.10;99578.13;5093556;28;20031;-58
2022/05/02 11:54:25;;;;;;;2.90;1.85;;;;;;;17.46;23.14;99570.50;5086849;28;20040;-59
2022/05/02 11:56:55;;;;;;;2.85;1.58;;;;;;;16.93;22.61;99533.06;5093842;28;20032;-59
2022/05/02 11:59:26;;;;;;;3.55;2.10;;;;;;;16.87;22.80;99522.84;5093463;28;20024;-59
2022/05/02 12:02:03;;;;;;;4.10;1.92;;;;;;;16.73;22.72;99511.31;5093397;28;20024;-59
2022/05/02 12:04:36;;;;;;;4.25;2.00;;;;;;;17.08;24.09;99587.19;5093422;28;20421;-59
2022/05/02 12:07:08;;;;;;;2.83;1.90;;;;;;;16.83;23.45;99516.06;5093597;28;20048;-58
2022/05/02 12:09:34;;;;;;;;;;;;;;;17.13;22.60;99560.81;5094140;28;20432;-59
2022/05/02 12:12:05;;;;;;;4.35;2.10;;;;;;;17.15;23.96;99558.13;5088955;28;19916;-58
2022/05/02 12:14:31;;;;;;;3.13;1.95;;;;;;;17.27;23.76;99541.78;5083925;28;20089;-59
2022/05/02 12:17:10;;;;;;;2.80;2.08;;;;;;;17.37;23.59;99542.16;5093633;28;20032;-58
2022/05/02 12:19:38;;;;;;;2.92;2.35;;;;;;;17.30;22.72;99536.41;5093287;28;20023;-58
2022/05/02 12:22:08;;;;;;;5.43;2.03;;;;;;;17.13;23.20;99536.41;5093403;28;20028;-57
2022/05/02 12:24:38;;;;;;;6.30;2.30;;;;;;;16.69;23.60;99486.22;5093423;28;20016;-57
2022/05/02 12:27:11;;;;;;;3.83;2.42;;;;;;;17.12;23.03;99532.13;5092890;28;20043;-57